createdAt,value
2018-10-01T00:00:45.888Z,3.53
2018-10-01T00:03:17.348Z,3.63
2018-10-01T00:05:48.719Z,3.73
2018-10-01T00:08:20.066Z,3.60
2018-10-01T00:10:51.210Z,3.77
2018-10-01T00:13:22.494Z,3.50
2018-10-01T00:15:53.815Z,3.90
2018-10-01T00:18:25.173Z,3.30
2018-10-01T00:21:01.691Z,3.70
2018-10-01T00:23:33.128Z,3.40
2018-10-01T00:26:04.405Z,3.33
2018-10-01T00:28:35.467Z,3.37
2018-10-01T00:31:06.732Z,3.73
2018-10-01T00:33:38.041Z,3.80
2018-10-01T00:36:09.405Z,3.70
2018-10-01T00:38:40.785Z,3.43
2018-10-01T00:41:12.276Z,3.23
2018-10-01T00:43:43.677Z,3.53
2018-10-01T00:46:15.001Z,3.80
2018-10-01T00:48:46.025Z,3.63
2018-10-01T00:51:17.292Z,3.30
2018-10-01T00:53:48.481Z,3.60
2018-10-01T00:56:19.674Z,3.53
2018-10-01T00:58:51.010Z,3.93
2018-10-01T01:01:22.729Z,3.67
2018-10-01T01:03:54.325Z,3.50
2018-10-01T01:06:25.773Z,3.60
2018-10-01T01:08:57.052Z,3.43
2018-10-01T01:11:28.099Z,3.43
2018-10-01T01:13:59.201Z,3.90
2018-10-01T01:16:30.571Z,3.53
2018-10-01T01:19:02.015Z,3.97
2018-10-01T01:21:33.202Z,3.47
2018-10-01T01:24:04.432Z,4.10
2018-10-01T01:26:35.845Z,4.00
2018-10-01T01:29:07.141Z,3.80
2018-10-01T01:31:38.439Z,3.77
2018-10-01T01:34:09.812Z,3.43
2018-10-01T01:36:41.215Z,4.33
2018-10-01T01:39:13.108Z,3.50
2018-10-01T01:41:44.464Z,4.10
2018-10-01T01:44:15.725Z,3.97
2018-10-01T01:46:46.830Z,3.90
2018-10-01T01:49:18.373Z,3.90
2018-10-01T01:51:49.961Z,4.13
2018-10-01T01:54:21.298Z,4.13
2018-10-01T01:56:52.652Z,3.87
2018-10-01T01:59:23.905Z,4.13
2018-10-01T02:01:55.194Z,3.70
2018-10-01T02:04:26.920Z,4.30
2018-10-01T02:06:58.222Z,4.00
2018-10-01T02:09:29.807Z,4.00
2018-10-01T02:12:01.170Z,3.97
2018-10-01T02:14:32.572Z,3.73
2018-10-01T02:17:04.020Z,4.10
2018-10-01T02:19:35.420Z,3.93
2018-10-01T02:22:06.715Z,3.87
2018-10-01T02:24:38.157Z,4.13
2018-10-01T02:27:09.354Z,4.47
2018-10-01T02:29:40.605Z,4.03
2018-10-01T02:32:11.729Z,4.10
2018-10-01T02:34:43.197Z,4.50
2018-10-01T02:37:14.804Z,4.33
2018-10-01T02:39:46.220Z,4.03
2018-10-01T02:42:17.322Z,4.57
2018-10-01T02:44:48.601Z,4.50
2018-10-01T02:47:19.676Z,4.27
2018-10-01T02:49:51.241Z,4.70
2018-10-01T02:52:27.499Z,4.07
2018-10-01T02:54:58.793Z,4.10
2018-10-01T02:57:29.941Z,4.87
2018-10-01T03:00:01.471Z,4.60
2018-10-01T03:02:32.680Z,4.00
2018-10-01T03:05:04.135Z,4.20
2018-10-01T03:07:35.404Z,4.43
2018-10-01T03:10:06.868Z,4.50
2018-10-01T03:12:38.130Z,5.53
2018-10-01T03:15:09.482Z,6.00
2018-10-01T03:17:40.828Z,6.57
2018-10-01T03:20:12.245Z,20.23
2018-10-01T03:22:43.638Z,7.67
2018-10-01T03:25:14.953Z,5.70
2018-10-01T03:27:46.412Z,5.57
2018-10-01T03:30:17.756Z,5.30
2018-10-01T03:32:49.410Z,5.17
2018-10-01T03:35:20.557Z,9.13
2018-10-01T03:37:52.059Z,6.00
2018-10-01T03:40:24.560Z,6.00
2018-10-01T03:42:55.823Z,5.13
2018-10-01T03:45:27.266Z,4.90
2018-10-01T03:47:58.755Z,5.17
2018-10-01T03:50:30.168Z,5.60
2018-10-01T03:53:01.529Z,5.57
2018-10-01T03:55:32.818Z,5.20
2018-10-01T03:58:04.398Z,5.40
2018-10-01T04:00:35.863Z,5.23
2018-10-01T04:03:07.425Z,5.70
2018-10-01T04:05:38.545Z,5.70
2018-10-01T04:08:10.055Z,5.80
2018-10-01T04:10:41.596Z,8.83
2018-10-01T04:13:13.006Z,5.73
2018-10-01T04:15:44.471Z,5.57
2018-10-01T04:18:15.808Z,6.57
2018-10-01T04:20:47.317Z,6.23
2018-10-01T04:23:18.752Z,8.73
2018-10-01T04:25:50.352Z,6.53
2018-10-01T04:28:21.653Z,7.30
2018-10-01T04:30:52.879Z,6.70
2018-10-01T04:33:24.659Z,7.13
2018-10-01T04:35:55.904Z,7.03
2018-10-01T04:38:27.209Z,7.47
2018-10-01T04:40:58.936Z,8.20
2018-10-01T04:43:30.440Z,9.40
2018-10-01T04:46:01.761Z,8.33
2018-10-01T04:48:33.283Z,8.10
2018-10-01T04:51:04.501Z,9.23
2018-10-01T04:53:36.108Z,10.23
2018-10-01T04:56:07.618Z,9.60
2018-10-01T04:58:39.025Z,10.33
2018-10-01T05:01:10.353Z,11.23
2018-10-01T05:03:41.645Z,10.73
2018-10-01T05:06:13.096Z,12.30
2018-10-01T05:08:44.551Z,11.60
2018-10-01T05:11:15.776Z,11.97
2018-10-01T05:13:46.953Z,13.33
2018-10-01T05:16:18.377Z,11.87
2018-10-01T05:18:49.748Z,12.63
2018-10-01T05:21:20.993Z,12.97
2018-10-01T05:23:52.348Z,13.13
2018-10-01T05:26:23.704Z,12.47
2018-10-01T05:28:55.303Z,13.70
2018-10-01T05:31:26.563Z,14.70
2018-10-01T05:33:58.066Z,13.10
2018-10-01T05:36:29.514Z,14.20
2018-10-01T05:39:00.941Z,13.40
2018-10-01T05:41:32.496Z,13.27
2018-10-01T05:44:03.647Z,13.70
2018-10-01T05:46:34.828Z,15.63
2018-10-01T05:49:07.423Z,14.33
2018-10-01T05:51:38.788Z,13.93
2018-10-01T05:54:10.416Z,14.70
2018-10-01T05:56:41.723Z,14.77
2018-10-01T05:59:13.225Z,24.77
2018-10-01T06:01:44.664Z,15.10
2018-10-01T06:04:16.009Z,13.57
2018-10-01T06:06:47.611Z,14.27
2018-10-01T06:09:18.944Z,13.03
2018-10-01T06:11:50.170Z,13.43
2018-10-01T06:14:21.252Z,13.17
2018-10-01T06:16:52.344Z,12.67
2018-10-01T06:19:23.902Z,18.73
2018-10-01T06:21:55.442Z,18.60
2018-10-01T06:24:26.710Z,13.93
2018-10-01T06:27:01.042Z,13.43
2018-10-01T06:29:32.965Z,14.40
2018-10-01T06:32:04.408Z,13.53
2018-10-01T06:34:35.977Z,13.60
2018-10-01T06:37:07.345Z,14.30
2018-10-01T06:39:39.031Z,13.03
2018-10-01T06:42:10.447Z,13.73
2018-10-01T06:44:42.108Z,13.13
2018-10-01T06:47:13.565Z,14.20
2018-10-01T06:49:44.934Z,13.70
2018-10-01T06:52:16.486Z,13.20
2018-10-01T06:54:48.044Z,13.53
2018-10-01T06:57:19.433Z,14.37
2018-10-01T06:59:51.047Z,12.20
2018-10-01T07:02:22.688Z,12.67
2018-10-01T07:04:54.245Z,13.10
2018-10-01T07:07:25.486Z,14.37
2018-10-01T07:09:57.470Z,15.20
2018-10-01T07:12:29.064Z,14.40
2018-10-01T07:15:00.993Z,17.40
2018-10-01T07:17:32.275Z,16.97
2018-10-01T07:20:03.991Z,13.93
2018-10-01T07:22:35.381Z,14.57
2018-10-01T07:25:07.011Z,13.33
2018-10-01T07:27:38.418Z,14.80
2018-10-01T07:30:09.583Z,14.90
2018-10-01T07:32:41.532Z,15.37
2018-10-01T07:35:13.138Z,15.13
2018-10-01T07:37:44.526Z,14.60
2018-10-01T07:40:15.900Z,14.03
2018-10-01T07:42:47.082Z,16.97
2018-10-01T07:45:18.778Z,16.37
2018-10-01T07:47:50.057Z,14.90
2018-10-01T07:50:21.587Z,16.43
2018-10-01T07:52:52.792Z,16.03
2018-10-01T07:55:24.428Z,15.40
2018-10-01T07:57:55.792Z,16.60
2018-10-01T08:00:27.729Z,16.77
2018-10-01T08:02:59.542Z,15.23
2018-10-01T08:05:31.427Z,15.53
2018-10-01T08:08:03.037Z,17.37
2018-10-01T08:10:34.236Z,16.53
2018-10-01T08:13:05.975Z,17.85
2018-10-01T08:15:37.551Z,17.62
2018-10-01T08:18:09.085Z,17.60
2018-10-01T08:20:40.389Z,18.03
2018-10-01T08:23:11.580Z,16.97
2018-10-01T08:25:43.136Z,19.10
2018-10-01T08:28:14.385Z,20.57
2018-10-01T08:30:45.828Z,18.40
2018-10-01T08:33:17.162Z,18.03
2018-10-01T08:35:48.700Z,18.17
2018-10-01T08:38:20.335Z,19.03
2018-10-01T08:40:51.819Z,18.20
2018-10-01T08:43:23.454Z,20.27
2018-10-01T08:45:55.002Z,19.53
2018-10-01T08:48:27.849Z,22.37
2018-10-01T08:51:04.235Z,20.20
2018-10-01T08:54:38.297Z,20.80
2018-10-01T08:57:09.785Z,23.13
2018-10-01T08:59:41.113Z,22.47
2018-10-01T09:02:12.503Z,21.10
2018-10-01T09:04:43.702Z,25.17
2018-10-01T09:07:14.968Z,20.67
2018-10-01T09:09:46.486Z,22.00
2018-10-01T09:12:17.915Z,21.37
2018-10-01T09:14:49.332Z,22.30
2018-10-01T09:17:20.801Z,21.23
2018-10-01T09:19:52.285Z,22.17
2018-10-01T09:22:23.736Z,21.03
2018-10-01T09:24:55.241Z,21.90
2018-10-01T09:27:26.852Z,23.20
2018-10-01T09:29:58.388Z,24.77
2018-10-01T09:32:29.933Z,24.90
2018-10-01T09:35:01.853Z,28.30
2018-10-01T09:37:33.070Z,25.83
2018-10-01T09:40:04.750Z,24.80
2018-10-01T09:42:35.980Z,22.70
2018-10-01T09:45:07.580Z,22.67
2018-10-01T09:47:39.471Z,24.40
2018-10-01T09:50:11.402Z,26.07
2018-10-01T09:52:42.647Z,24.33
2018-10-01T09:55:13.989Z,30.17
2018-10-01T09:57:45.223Z,30.20
2018-10-01T10:00:20.933Z,27.53
2018-10-01T10:02:52.700Z,32.27
2018-10-01T10:05:23.968Z,23.37
2018-10-01T10:07:55.215Z,24.87
2018-10-01T10:10:26.808Z,24.13
2018-10-01T10:12:58.151Z,21.27
2018-10-01T10:15:29.528Z,20.73
2018-10-01T10:18:00.927Z,20.23
2018-10-01T10:20:32.738Z,20.43
2018-10-01T10:23:04.544Z,19.23
2018-10-01T10:25:35.841Z,19.37
2018-10-01T10:28:06.984Z,19.23
2018-10-01T10:30:38.424Z,18.43
2018-10-01T10:33:09.736Z,19.03
2018-10-01T10:35:41.836Z,15.90
2018-10-01T10:38:13.422Z,17.13
2018-10-01T10:40:44.823Z,16.37
2018-10-01T10:43:16.724Z,17.07
2018-10-01T10:45:47.972Z,16.03
2018-10-01T10:48:19.247Z,16.57
2018-10-01T10:50:50.809Z,14.80
2018-10-01T10:53:22.422Z,15.70
2018-10-01T10:55:53.941Z,15.30
2018-10-01T10:58:25.484Z,15.47
2018-10-01T11:00:56.591Z,14.87
2018-10-01T11:03:28.047Z,14.60
2018-10-01T11:05:59.840Z,14.50
2018-10-01T11:08:31.233Z,13.93
2018-10-01T11:11:02.799Z,14.40
2018-10-01T11:13:34.485Z,13.37
2018-10-01T11:16:06.138Z,13.20
2018-10-01T11:18:37.802Z,14.40
2018-10-01T11:21:09.773Z,14.00
2018-10-01T11:23:41.214Z,15.63
2018-10-01T11:26:12.723Z,15.50
2018-10-01T11:28:44.421Z,14.87
2018-10-01T11:31:15.728Z,14.73
2018-10-01T11:33:47.454Z,15.50
2018-10-01T11:36:19.213Z,15.20
2018-10-01T11:38:50.741Z,14.97
2018-10-01T11:41:22.144Z,15.87
2018-10-01T11:43:53.266Z,16.07
2018-10-01T11:46:24.738Z,15.47
2018-10-01T11:48:56.098Z,16.63
2018-10-01T11:51:27.516Z,16.47
2018-10-01T11:53:58.957Z,16.87
2018-10-01T11:56:30.605Z,17.30
2018-10-01T11:59:02.071Z,17.83
2018-10-01T12:01:33.505Z,16.10
2018-10-01T12:04:04.846Z,16.03
2018-10-01T12:06:36.239Z,17.53
2018-10-01T12:09:11.148Z,17.10
2018-10-01T12:11:42.512Z,17.00
2018-10-01T12:14:13.965Z,18.20
2018-10-01T12:16:45.464Z,16.33
2018-10-01T12:19:16.769Z,18.23
2018-10-01T12:21:48.653Z,18.00
2018-10-01T12:24:19.827Z,17.90
2018-10-01T12:26:51.260Z,18.37
2018-10-01T12:29:22.935Z,15.80
2018-10-01T12:31:54.564Z,15.03
2018-10-01T12:34:26.408Z,13.50
2018-10-01T12:36:57.723Z,14.40
2018-10-01T12:39:29.168Z,15.03
2018-10-01T12:42:00.644Z,15.33
2018-10-01T12:44:32.035Z,18.13
2018-10-01T12:47:03.633Z,15.23
2018-10-01T12:49:35.025Z,16.40
2018-10-01T12:52:06.564Z,14.73
2018-10-01T12:54:38.001Z,15.60
2018-10-01T12:57:09.559Z,15.17
2018-10-01T12:59:40.885Z,16.23
2018-10-01T13:02:12.181Z,17.37
2018-10-01T13:04:43.677Z,14.67
2018-10-01T13:07:15.009Z,16.30
2018-10-01T13:09:46.275Z,13.93
2018-10-01T13:12:17.671Z,15.57
2018-10-01T13:14:49.068Z,18.47
2018-10-01T13:17:20.400Z,16.23
2018-10-01T13:19:51.981Z,17.33
2018-10-01T13:22:23.471Z,15.63
2018-10-01T13:24:54.939Z,15.07
2018-10-01T13:27:26.526Z,15.20
2018-10-01T13:29:57.845Z,14.67
2018-10-01T13:32:29.072Z,15.03
2018-10-01T13:35:00.663Z,20.23
2018-10-01T13:37:32.084Z,14.60
2018-10-01T13:40:03.442Z,16.40
2018-10-01T13:42:34.972Z,16.07
2018-10-01T13:45:06.757Z,15.10
2018-10-01T13:47:38.297Z,15.27
2018-10-01T13:50:10.093Z,27.77
2018-10-01T13:52:41.361Z,30.93
2018-10-01T13:55:13.057Z,21.10
2018-10-01T13:57:44.454Z,17.00
2018-10-01T14:00:15.800Z,22.17
2018-10-01T14:02:47.065Z,14.93
2018-10-01T14:05:18.684Z,13.47
2018-10-01T14:07:49.975Z,13.67
2018-10-01T14:10:21.390Z,13.50
2018-10-01T14:12:52.748Z,16.27
2018-10-01T14:15:24.244Z,15.40
2018-10-01T14:17:55.629Z,13.37
2018-10-01T14:20:26.803Z,12.57
2018-10-01T14:22:57.940Z,12.47
2018-10-01T14:25:29.589Z,12.80
2018-10-01T14:28:00.848Z,13.10
2018-10-01T14:30:32.137Z,12.87
2018-10-01T14:33:03.284Z,12.23
2018-10-01T14:35:34.791Z,11.10
2018-10-01T14:38:06.357Z,10.77
2018-10-01T14:40:37.692Z,10.10
2018-10-01T14:43:08.876Z,9.83
2018-10-01T14:45:40.366Z,9.60
2018-10-01T14:48:11.899Z,9.67
2018-10-01T14:50:44.251Z,10.40
2018-10-01T14:53:15.800Z,10.03
2018-10-01T14:55:47.580Z,10.07
2018-10-01T14:58:18.949Z,10.30
2018-10-01T15:00:50.119Z,10.20
2018-10-01T15:03:21.473Z,10.17
2018-10-01T15:05:53.108Z,10.33
2018-10-01T15:08:24.437Z,9.00
2018-10-01T15:10:55.891Z,9.07
2018-10-01T15:13:27.053Z,8.83
2018-10-01T15:15:58.324Z,8.47
2018-10-01T15:18:29.918Z,7.97
2018-10-01T15:21:01.200Z,9.53
2018-10-01T15:23:32.846Z,10.17
2018-10-01T15:26:04.401Z,11.53
2018-10-01T15:28:35.955Z,10.50
2018-10-01T15:31:07.513Z,9.53
2018-10-01T15:33:38.788Z,7.53
2018-10-01T15:36:10.249Z,8.47
2018-10-01T15:38:41.733Z,7.47
2018-10-01T15:41:13.128Z,7.07
2018-10-01T15:43:44.508Z,8.30
2018-10-01T15:46:15.725Z,7.20
2018-10-01T15:48:47.184Z,6.70
2018-10-01T15:51:18.706Z,6.13
2018-10-01T15:53:50.025Z,5.57
2018-10-01T15:56:21.357Z,14.73
2018-10-01T15:58:52.849Z,9.83
2018-10-01T16:01:24.331Z,8.23
2018-10-01T16:03:55.983Z,7.23
2018-10-01T16:06:27.329Z,8.17
2018-10-01T16:08:58.816Z,7.13
2018-10-01T16:11:30.373Z,7.53
2018-10-01T16:14:01.850Z,7.40
2018-10-01T16:16:33.780Z,8.03
2018-10-01T16:19:05.481Z,7.40
2018-10-01T16:21:36.770Z,8.20
2018-10-01T16:24:08.573Z,40.93
2018-10-01T16:26:40.200Z,15.73
2018-10-01T16:29:11.665Z,9.27
2018-10-01T16:31:43.113Z,6.97
2018-10-01T16:34:14.534Z,6.63
2018-10-01T16:36:46.009Z,6.57
2018-10-01T16:39:17.595Z,7.30
2018-10-01T16:41:48.806Z,6.90
2018-10-01T16:44:20.427Z,8.07
2018-10-01T16:46:52.109Z,9.30
2018-10-01T16:49:23.921Z,8.33
2018-10-01T16:51:55.259Z,8.17
2018-10-01T16:54:26.812Z,8.13
2018-10-01T16:56:58.356Z,8.87
2018-10-01T16:59:30.128Z,8.90
2018-10-01T17:02:02.000Z,9.50
2018-10-01T17:04:33.752Z,8.47
2018-10-01T17:07:05.327Z,9.20
2018-10-01T17:09:36.780Z,9.67
2018-10-01T17:12:08.357Z,8.97
2018-10-01T17:14:39.920Z,9.27
2018-10-01T17:17:11.537Z,25.83
2018-10-01T17:19:43.338Z,17.60
2018-10-01T17:22:15.103Z,10.47
2018-10-01T17:24:46.577Z,10.80
2018-10-01T17:27:18.017Z,10.53
2018-10-01T17:29:49.329Z,9.93
2018-10-01T17:32:21.145Z,12.97
2018-10-01T17:34:52.748Z,15.10
2018-10-01T17:37:24.620Z,10.77
2018-10-01T17:39:56.246Z,10.47
2018-10-01T17:42:28.135Z,13.20
2018-10-01T17:44:59.684Z,20.00
2018-10-01T17:47:31.068Z,12.77
2018-10-01T17:50:02.649Z,14.37
2018-10-01T17:52:35.400Z,20.50
2018-10-01T17:55:07.008Z,17.10
2018-10-01T17:57:38.954Z,20.00
2018-10-01T18:00:10.688Z,14.23
2018-10-01T18:02:41.970Z,21.00
2018-10-01T18:05:13.774Z,14.27
2018-10-01T18:07:45.423Z,14.97
2018-10-01T18:10:17.229Z,27.83
2018-10-01T18:12:48.912Z,29.40
2018-10-01T18:15:20.798Z,14.87
2018-10-01T18:17:52.856Z,12.30
2018-10-01T18:20:24.564Z,13.03
2018-10-01T18:22:56.127Z,11.80
2018-10-01T18:25:27.669Z,12.30
2018-10-01T18:27:59.332Z,12.90
2018-10-01T18:30:30.802Z,13.10
2018-10-01T18:33:02.420Z,13.80
2018-10-01T18:35:33.912Z,12.40
2018-10-01T18:38:05.134Z,12.73
2018-10-01T18:40:36.520Z,12.70
2018-10-01T18:43:08.292Z,12.60
2018-10-01T18:45:39.962Z,12.10
2018-10-01T18:48:13.054Z,12.20
2018-10-01T18:50:44.828Z,12.63
2018-10-01T18:53:16.613Z,11.90
2018-10-01T18:55:48.150Z,23.80
2018-10-01T18:58:20.101Z,15.47
2018-10-01T19:00:51.774Z,11.23
2018-10-01T19:03:23.348Z,11.17
2018-10-01T19:05:54.842Z,11.27
2018-10-01T19:08:26.428Z,10.20
2018-10-01T19:10:58.067Z,11.13
2018-10-01T19:13:29.808Z,11.33
2018-10-01T19:16:01.303Z,10.87
2018-10-01T19:18:32.803Z,11.70
2018-10-01T19:21:04.638Z,19.10
2018-10-01T19:23:36.589Z,12.97
2018-10-01T19:26:08.239Z,11.07
2018-10-01T19:28:39.701Z,12.10
2018-10-01T19:31:11.453Z,12.50
2018-10-01T19:33:42.969Z,10.37
2018-10-01T19:36:14.821Z,11.20
2018-10-01T19:38:46.721Z,10.73
2018-10-01T19:41:18.301Z,10.47
2018-10-01T19:43:49.719Z,10.80
2018-10-01T19:46:21.386Z,10.33
2018-10-01T19:48:52.875Z,10.50
2018-10-01T19:51:24.284Z,10.53
2018-10-01T19:53:55.804Z,11.23
2018-10-01T19:56:27.439Z,9.77
2018-10-01T19:58:58.937Z,9.60
2018-10-01T20:01:30.264Z,10.20
2018-10-01T20:04:01.855Z,10.80
2018-10-01T20:06:33.612Z,10.40
2018-10-01T20:09:07.518Z,11.33
2018-10-01T20:11:39.321Z,9.97
2018-10-01T20:14:11.004Z,10.00
2018-10-01T20:16:43.038Z,9.97
2018-10-01T20:19:14.490Z,25.60
2018-10-01T20:21:46.020Z,25.13
2018-10-01T20:24:17.662Z,11.00
2018-10-01T20:26:49.235Z,9.27
2018-10-01T20:29:21.131Z,12.43
2018-10-01T20:31:52.533Z,28.17
2018-10-01T20:34:23.865Z,15.13
2018-10-01T20:36:55.529Z,15.93
2018-10-01T20:39:26.809Z,12.07
2018-10-01T20:41:58.221Z,21.30
2018-10-01T20:44:29.605Z,30.53
2018-10-01T20:47:01.271Z,16.23
2018-10-01T20:49:32.602Z,10.87
2018-10-01T20:52:04.525Z,12.17
2018-10-01T20:54:36.225Z,12.00
2018-10-01T20:57:07.810Z,10.70
2018-10-01T20:59:39.042Z,13.40
2018-10-01T21:02:10.350Z,19.93
2018-10-01T21:04:41.840Z,13.47
2018-10-01T21:07:13.372Z,11.07
2018-10-01T21:09:44.653Z,11.17
2018-10-01T21:12:15.781Z,10.70
2018-10-01T21:14:47.338Z,11.17
2018-10-01T21:17:18.776Z,11.37
2018-10-01T21:19:50.335Z,20.50
2018-10-01T21:22:21.669Z,12.33
2018-10-01T21:24:52.932Z,11.63
2018-10-01T21:27:24.605Z,12.00
2018-10-01T21:29:56.031Z,49.87
2018-10-01T21:32:27.329Z,21.17
2018-10-01T21:34:58.676Z,11.90
2018-10-01T21:37:30.160Z,11.53
2018-10-01T21:40:05.772Z,10.50
2018-10-01T21:42:37.252Z,11.03
2018-10-01T21:45:09.213Z,10.40
2018-10-01T21:47:40.583Z,12.60
2018-10-01T21:50:12.124Z,11.53
2018-10-01T21:52:43.416Z,11.53
2018-10-01T21:55:14.755Z,11.87
2018-10-01T21:57:46.306Z,12.30
2018-10-01T22:00:17.720Z,11.33
2018-10-01T22:02:48.933Z,12.20
2018-10-01T22:05:20.111Z,11.77
2018-10-01T22:07:51.381Z,12.00
2018-10-01T22:10:22.801Z,11.93
2018-10-01T22:12:54.040Z,12.07
2018-10-01T22:15:25.465Z,12.20
2018-10-01T22:17:56.869Z,11.90
2018-10-01T22:20:28.201Z,12.13
2018-10-01T22:22:59.749Z,12.70
2018-10-01T22:25:31.012Z,12.83
2018-10-01T22:28:02.448Z,12.00
2018-10-01T22:30:33.941Z,12.17
2018-10-01T22:33:05.640Z,12.77
2018-10-01T22:35:36.949Z,12.30
2018-10-01T22:38:08.264Z,12.30
2018-10-01T22:40:39.604Z,12.47
2018-10-01T22:43:11.116Z,12.77
2018-10-01T22:45:42.305Z,13.60
2018-10-01T22:48:13.551Z,13.30
2018-10-01T22:50:45.106Z,12.30
2018-10-01T22:53:16.471Z,12.93
2018-10-01T22:55:47.861Z,12.93
2018-10-01T22:58:19.145Z,12.13
2018-10-01T23:00:50.697Z,12.70
2018-10-01T23:03:22.086Z,12.73
2018-10-01T23:05:53.365Z,12.43
2018-10-01T23:08:24.749Z,12.23
2018-10-01T23:10:56.276Z,12.07
2018-10-01T23:13:27.620Z,12.30
2018-10-01T23:15:59.076Z,11.50
2018-10-01T23:18:30.443Z,12.03
2018-10-01T23:21:01.808Z,12.53
2018-10-01T23:23:32.961Z,10.63
2018-10-01T23:26:04.369Z,12.30
2018-10-01T23:28:35.741Z,11.10
2018-10-01T23:31:06.997Z,10.50
2018-10-01T23:33:38.128Z,11.20
2018-10-01T23:36:09.365Z,11.37
2018-10-01T23:38:40.777Z,10.57
2018-10-01T23:41:12.027Z,10.30
2018-10-01T23:43:43.626Z,9.30
2018-10-01T23:46:14.940Z,9.63
2018-10-01T23:48:46.304Z,8.60
2018-10-01T23:51:17.856Z,9.03
2018-10-01T23:53:49.192Z,8.53
2018-10-01T23:56:20.591Z,8.37
2018-10-01T23:58:52.219Z,8.00
